TimeEST,TemperatureF,Dew PointF,Humidity,Sea Level PressureIn,VisibilityMPH,Wind Direction,Wind SpeedMPH,Gust SpeedMPH,PrecipitationIn,Events,Conditions,WindDirDegrees,DateUTC
12:51 AM,37.0,19.0,48,30.06,10.0,North,8.1,-,N/A,,Clear,10,2012-11-07 05:51:00
1:51 AM,37.0,19.9,50,30.05,10.0,NNE,6.9,-,N/A,,Clear,20,2012-11-07 06:51:00
2:51 AM,37.0,17.1,44,30.01,10.0,NNE,6.9,-,N/A,,Clear,20,2012-11-07 07:51:00
3:51 AM,37.0,21.0,52,30.00,10.0,NNE,9.2,-,N/A,,Clear,30,2012-11-07 08:51:00
4:51 AM,37.9,23.0,55,29.99,10.0,NNE,8.1,19.6,N/A,,Overcast,30,2012-11-07 09:51:00
5:51 AM,39.2,24.8,56,29.97,10.0,NNE,10.4,17.3,N/A,,Overcast,20,2012-11-07 10:51:00
6:51 AM,39.0,26.1,60,29.96,10.0,North,9.2,17.3,N/A,,Mostly Cloudy,10,2012-11-07 11:51:00
7:51 AM,37.9,25.0,60,29.96,10.0,North,12.7,18.4,N/A,,Clear,10,2012-11-07 12:51:00
8:51 AM,39.0,25.0,57,29.94,10.0,North,10.4,-,N/A,,Clear,360,2012-11-07 13:51:00
9:51 AM,39.0,25.0,57,29.91,10.0,North,13.8,-,N/A,,Overcast,10,2012-11-07 14:51:00
10:51 AM,39.9,26.1,58,29.90,10.0,North,15.0,18.4,N/A,,Overcast,10,2012-11-07 15:51:00
11:40 AM,37.4,26.6,65,29.88,2.0,North,11.5,19.6,0.00,Rain-Snow,Light Rain,360,2012-11-07 16:40:00
11:51 AM,37.0,28.0,70,29.87,1.0,North,15.0,21.9,0.00,Rain-Snow,Light Rain,360,2012-11-07 16:51:00
11:53 AM,37.4,28.4,70,29.87,1.0,North,15.0,21.9,0.00,Rain-Snow,Light Rain,350,2012-11-07 16:53:00
12:04 PM,35.6,30.2,81,29.86,2.5,North,11.5,-,0.01,Rain-Snow,Light Rain,10,2012-11-07 17:04:00
12:40 PM,35.6,32.0,87,29.85,2.5,North,13.8,19.6,0.04,Rain-Snow,Light Rain,360,2012-11-07 17:40:00
12:51 PM,36.0,32.0,86,29.86,2.5,North,10.4,18.4,0.05,Rain-Snow,Light Rain,360,2012-11-07 17:51:00
12:58 PM,35.6,32.0,87,29.86,3.0,North,10.4,19.6,0.00,Rain-Snow,Light Rain,360,2012-11-07 17:58:00
1:06 PM,35.6,32.0,87,29.86,3.0,North,12.7,19.6,0.01,Rain-Snow,Light Rain,360,2012-11-07 18:06:00
1:49 PM,35.6,32.0,87,29.85,2.0,North,16.1,21.9,0.04,Rain-Snow,Light Rain,360,2012-11-07 18:49:00
1:51 PM,35.1,32.0,89,29.86,2.0,North,12.7,20.7,0.04,Rain-Snow,Light Rain,350,2012-11-07 18:51:00
2:01 PM,33.8,32.0,93,29.85,1.0,North,13.8,20.7,0.01,Rain-Snow,Light Rain,350,2012-11-07 19:01:00
2:07 PM,33.8,32.0,93,29.85,0.8,North,12.7,20.7,0.02,Rain-Snow,Light Rain,350,2012-11-07 19:07:00
2:51 PM,34.0,32.0,92,29.85,0.8,North,13.8,23.0,0.07,Rain-Snow,Light Snow,350,2012-11-07 19:51:00
2:58 PM,33.8,32.0,93,29.84,1.5,North,15.0,23.0,0.00,Rain-Snow,Light Snow,350,2012-11-07 19:58:00
3:42 PM,33.8,30.2,87,29.85,0.8,North,13.8,21.9,0.04,Snow,Light Snow,360,2012-11-07 20:42:00
3:51 PM,33.1,30.9,92,29.85,0.8,North,11.5,23.0,0.06,Snow,Light Snow,360,2012-11-07 20:51:00
4:51 PM,33.1,30.9,92,29.85,0.8,North,11.5,26.5,0.05,Snow,Light Snow,360,2012-11-07 21:51:00
4:58 PM,33.8,30.2,87,29.85,0.8,North,15.0,23.0,0.00,Snow,Light Snow,350,2012-11-07 21:58:00
5:05 PM,33.8,30.2,87,29.85,0.8,North,16.1,23.0,0.00,Snow,Light Snow,350,2012-11-07 22:05:00
5:51 PM,33.8,30.2,87,29.86,0.8,North,16.1,27.6,N/A,Snow,Light Snow,350,2012-11-07 22:51:00
6:31 PM,32.0,30.2,93,29.85,0.5,North,19.6,25.3,0.03,Fog-Snow,Light Snow,350,2012-11-07 23:31:00
6:51 PM,32.0,30.0,92,29.85,0.5,North,18.4,29.9,0.05,Fog-Snow,Light Snow,350,2012-11-07 23:51:00
6:58 PM,32.0,30.2,93,29.84,0.5,North,17.3,27.6,0.00,Fog-Snow,Light Snow,350,2012-11-07 23:58:00
7:26 PM,32.0,30.2,93,29.83,0.5,North,16.1,25.3,0.02,Fog-Snow,Snow,350,2012-11-08 00:26:00
7:51 PM,32.0,30.0,92,29.82,0.5,NNW,20.7,29.9,0.04,Fog-Snow,Snow,340,2012-11-08 00:51:00
7:54 PM,32.0,30.2,93,29.82,0.2,NNW,16.1,29.9,0.00,Fog-Snow,Snow,340,2012-11-08 00:54:00
8:35 PM,33.8,30.2,87,29.82,0.2,North,16.1,21.9,0.03,Fog-Snow,Snow,350,2012-11-08 01:35:00
8:46 PM,33.8,30.2,87,29.82,0.5,North,16.1,25.3,0.04,Fog-Snow,Snow,350,2012-11-08 01:46:00
8:51 PM,33.1,30.9,92,29.82,0.5,North,13.8,24.2,0.04,Fog-Snow,Snow,350,2012-11-08 01:51:00
9:18 PM,33.8,30.2,87,29.82,1.0,North,15.0,23.0,0.01,Snow,Light Snow,350,2012-11-08 02:18:00
9:51 PM,33.1,30.0,89,29.81,1.0,North,15.0,23.0,0.02,Snow,Light Snow,350,2012-11-08 02:51:00
10:51 PM,33.1,30.0,89,29.79,1.0,North,13.8,23.0,0.01,Snow,Light Snow,350,2012-11-08 03:51:00
10:58 PM,33.8,30.2,87,29.79,3.0,North,16.1,24.2,0.00,Snow,Light Snow,350,2012-11-08 03:58:00
11:11 PM,33.8,30.2,87,29.79,2.5,North,12.7,21.9,0.01,Snow,Light Snow,350,2012-11-08 04:11:00
11:27 PM,33.8,30.2,87,29.79,1.8,North,12.7,-,0.01,Snow,Light Snow,350,2012-11-08 04:27:00
11:38 PM,33.8,30.2,87,29.78,2.0,North,15.0,20.7,0.01,Snow,Light Snow,350,2012-11-08 04:38:00
11:51 PM,33.1,30.0,89,29.79,2.5,North,10.4,-,0.02,Snow,Light Snow,350,2012-11-08 04:51:00
11:58 PM,33.8,30.2,87,29.79,1.5,North,10.4,19.6,0.00,Snow,Light Snow,350,2012-11-08 04:58:00